Time;durP1;ratioP1;P1;durP2;ratioP2;P2;SDS_P1;SDS_P2;PMS_P1;PMS_P2;Temp;Humidity;BMP_temperature;BMP_pressure;BME280_temperature;BME280_humidity;BME280_pressure;Samples;Min_cycle;Max_cycle;Signal;HPM_P1;HPM_P2
2022/07/17 00:01:41;;;;;;;3.10;2.00;;;;;;;12.41;74.10;98966.23;104940;1270;75564;-24
2022/07/17 00:04:09;;;;;;;5.20;2.10;;;;;;;12.42;73.30;98964.61;104836;1271;76154;-24
2022/07/17 00:06:41;;;;;;;5.60;2.10;;;;;;;12.21;73.49;98965.23;104664;1271;74979;-24
2022/07/17 00:09:09;;;;;;;5.50;2.50;;;;;;;11.95;73.97;98961.46;104896;1272;61813;-24
2022/07/17 00:11:37;;;;;;;8.40;2.80;;;;;;;11.68;74.33;98960.62;104829;1271;61148;-24
2022/07/17 00:14:04;;;;;;;4.70;2.20;;;;;;;11.47;75.54;98961.73;105211;1271;74336;-24
2022/07/17 00:16:32;;;;;;;5.50;2.50;;;;;;;11.76;76.48;98965.89;105072;1274;76016;-24
2022/07/17 00:19:02;;;;;;;4.00;1.80;;;;;;;11.56;77.58;99003.05;104762;1271;75143;-24
2022/07/17 00:21:30;;;;;;;2.90;1.80;;;;;;;11.21;78.46;99026.39;104897;1271;61143;-24
2022/07/17 00:23:58;;;;;;;8.10;2.20;;;;;;;11.23;78.14;99021.35;105188;1271;61112;-24
2022/07/17 00:26:25;;;;;;;2.50;1.50;;;;;;;11.22;78.50;99027.50;105066;1271;75701;-24
2022/07/17 00:28:53;;;;;;;1.90;1.20;;;;;;;11.28;78.01;99027.03;105088;1271;74754;-24
2022/07/17 00:31:21;;;;;;;2.20;1.40;;;;;;;11.79;76.56;99023.17;105005;1271;74275;-24
2022/07/17 00:33:49;;;;;;;2.40;1.60;;;;;;;12.24;74.33;99024.89;104921;1271;61115;-24
2022/07/17 00:36:16;;;;;;;2.30;1.40;;;;;;;12.35;73.86;99025.69;104970;1271;61124;-24
2022/07/17 00:38:44;;;;;;;5.40;1.90;;;;;;;12.20;74.18;99027.83;104913;1271;75597;-24
2022/07/17 00:41:14;;;;;;;2.10;1.50;;;;;;;12.09;75.06;99041.17;104984;1270;76056;-24
2022/07/17 00:43:42;;;;;;;6.20;1.70;;;;;;;11.88;76.10;99049.50;104868;1272;74586;-24
2022/07/17 00:46:09;;;;;;;1.30;0.90;;;;;;;11.77;77.00;99050.46;104982;1271;62657;-24
2022/07/17 00:48:38;;;;;;;2.50;1.10;;;;;;;12.16;76.06;99052.52;104736;1271;62218;-24
2022/07/17 00:51:08;;;;;;;2.10;1.10;;;;;;;12.65;73.99;99054.00;105027;1271;74493;-24
2022/07/17 00:53:35;;;;;;;1.70;1.40;;;;;;;12.68;73.81;99058.79;105217;1271;76052;-24
2022/07/17 00:56:04;;;;;;;1.60;1.40;;;;;;;12.55;74.52;99059.36;105042;1271;74235;-26
2022/07/17 00:58:36;;;;;;;2.00;1.40;;;;;;;12.36;75.15;99064.54;105050;1271;61054;-25
2022/07/17 01:01:06;;;;;;;6.90;1.70;;;;;;;12.17;76.76;99065.63;104889;1272;61115;-26
2022/07/17 01:03:36;;;;;;;2.90;1.10;;;;;;;12.12;76.92;99071.54;104961;1271;74463;-25
2022/07/17 01:06:10;;;;;;;3.10;1.40;;;;;;;12.54;75.81;99073.73;104968;1270;76018;-25
2022/07/17 01:08:38;;;;;;;2.40;1.20;;;;;;;12.93;74.64;99070.25;104742;1271;74942;-26
2022/07/17 01:11:06;;;;;;;5.80;1.50;;;;;;;12.97;74.21;99058.07;104944;1272;61317;-25
2022/07/17 01:13:33;;;;;;;3.00;1.10;;;;;;;12.80;74.62;99054.16;105135;1271;61113;-25
2022/07/17 01:16:01;;;;;;;4.70;1.60;;;;;;;12.55;75.73;99055.92;105282;1271;75296;-25
2022/07/17 01:18:29;;;;;;;3.50;1.30;;;;;;;12.40;76.54;99058.67;105135;1271;76537;-25
2022/07/17 01:21:03;;;;;;;2.90;1.10;;;;;;;12.26;77.26;99061.89;105215;1270;74334;-25
2022/07/17 01:23:32;;;;;;;2.90;1.40;;;;;;;12.68;76.13;99063.63;105103;1272;61204;-25
2022/07/17 01:25:59;;;;;;;4.90;1.60;;;;;;;13.01;75.20;99061.72;104988;1270;61135;-25
2022/07/17 01:28:27;;;;;;;1.70;1.10;;;;;;;12.98;74.87;99061.80;104746;1274;76528;-26
2022/07/17 01:30:54;;;;;;;5.70;1.20;;;;;;;12.77;75.72;99065.80;105075;1271;75755;-24
2022/07/17 01:33:23;;;;;;;5.50;1.50;;;;;;;12.54;76.58;99067.97;105270;1271;74556;-24
2022/07/17 01:35:51;;;;;;;3.40;1.40;;;;;;;12.39;77.41;99074.07;105164;1272;61281;-24
2022/07/17 01:38:19;;;;;;;2.10;1.10;;;;;;;12.26;78.11;99067.66;105156;1271;61028;-24
2022/07/17 01:40:46;;;;;;;1.30;0.70;;;;;;;12.68;76.77;99070.80;104943;1271;75498;-24
2022/07/17 01:43:13;;;;;;;2.30;1.00;;;;;;;12.92;75.66;99071.20;105234;1271;77710;-24
2022/07/17 01:45:41;;;;;;;3.50;1.20;;;;;;;12.90;75.46;99068.96;105244;1269;74377;-24
2022/07/17 01:48:08;;;;;;;3.60;1.20;;;;;;;12.74;76.08;99069.73;105145;1271;62488;-24
2022/07/17 01:50:38;;;;;;;1.30;1.00;;;;;;;12.58;76.64;99065.95;105130;1272;61958;-24
2022/07/17 01:53:06;;;;;;;4.40;1.00;;;;;;;12.48;77.41;99061.02;105077;1271;77168;-24
2022/07/17 01:55:33;;;;;;;2.70;1.00;;;;;;;12.90;76.67;99053.44;105124;1271;76168;-25
2022/07/17 01:58:01;;;;;;;2.70;0.90;;;;;;;13.23;74.78;99043.48;105133;1271;74369;-24
2022/07/17 02:00:29;;;;;;;2.10;1.00;;;;;;;13.17;74.97;99033.73;104834;1271;61107;-24
2022/07/17 02:02:59;;;;;;;1.80;1.00;;;;;;;13.02;75.42;99033.35;105248;1271;61265;-24
2022/07/17 02:05:26;;;;;;;2.30;1.10;;;;;;;12.72;76.86;99038.00;105059;1271;74502;-24
2022/07/17 02:07:53;;;;;;;1.90;0.80;;;;;;;12.59;77.60;99038.47;105129;1271;76048;-24
2022/07/17 02:10:21;;;;;;;1.20;0.80;;;;;;;13.00;76.80;99037.23;105103;1270;74325;-24
2022/07/17 02:12:48;;;;;;;3.50;1.00;;;;;;;13.22;75.83;99027.41;104961;1271;61810;-25
2022/07/17 02:15:17;;;;;;;1.20;0.80;;;;;;;13.13;75.90;99014.64;104951;1272;62839;-24
2022/07/17 02:17:47;;;;;;;1.70;0.90;;;;;;;12.99;76.79;99013.25;105308;1271;74728;-24
2022/07/17 02:20:16;;;;;;;1.80;1.10;;;;;;;12.79;77.58;99018.39;105197;1271;75740;-24
2022/07/17 02:22:45;;;;;;;2.30;0.80;;;;;;;12.53;79.54;99028.44;105200;1271;74455;-25
2022/07/17 02:25:14;;;;;;;1.60;0.90;;;;;;;12.88;78.77;99022.48;104847;1271;61122;-24
2022/07/17 02:27:42;;;;;;;1.00;0.90;;;;;;;13.08;77.89;99021.83;104847;1274;61072;-24
2022/07/17 02:30:15;;;;;;;1.40;0.90;;;;;;;13.02;78.10;99020.80;104917;1271;75347;-24
2022/07/17 02:32:42;;;;;;;2.80;0.80;;;;;;;12.87;78.37;99007.08;104761;1274;76244;-25
2022/07/17 02:35:10;;;;;;;1.60;0.80;;;;;;;12.50;79.71;99008.52;104956;1271;74205;-25
2022/07/17 02:37:38;;;;;;;1.40;0.60;;;;;;;12.33;80.79;99020.75;104866;1271;63516;-25
2022/07/17 02:40:08;;;;;;;1.40;0.50;;;;;;;12.75;79.59;99030.45;105149;1274;61256;-25
2022/07/17 02:42:37;;;;;;;1.70;0.80;;;;;;;13.17;77.94;99035.30;105115;1274;74716;-25
2022/07/17 02:45:06;;;;;;;3.50;0.70;;;;;;;13.11;77.30;99034.15;105068;1271;76507;-25
2022/07/17 02:47:34;;;;;;;1.30;0.80;;;;;;;12.92;77.57;99033.45;104688;1274;74522;-25
2022/07/17 02:50:05;;;;;;;2.40;0.60;;;;;;;12.78;78.03;99041.61;105072;1271;60991;-24
2022/07/17 02:52:33;;;;;;;0.60;0.50;;;;;;;12.62;78.56;99050.23;105078;1272;61945;-25
2022/07/17 02:55:01;;;;;;;2.10;0.50;;;;;;;12.99;77.91;99048.77;105277;1270;75601;-25
2022/07/17 02:57:29;;;;;;;1.70;0.70;;;;;;;13.40;76.68;99053.63;105284;1271;76868;-25
2022/07/17 02:59:57;;;;;;;1.30;0.70;;;;;;;13.41;76.15;99048.36;105303;1271;74379;-25
2022/07/17 03:02:27;;;;;;;4.20;0.80;;;;;;;13.16;76.97;99053.51;105118;1271;61709;-25
2022/07/17 03:04:55;;;;;;;1.80;0.80;;;;;;;12.90;78.10;99052.77;105126;1274;61910;-25
2022/07/17 03:07:23;;;;;;;0.40;0.40;;;;;;;12.72;79.11;99055.30;105173;1271;75421;-25
2022/07/17 03:09:50;;;;;;;0.70;0.60;;;;;;;13.08;78.64;99058.29;105304;1271;76241;-25
2022/07/17 03:12:18;;;;;;;1.00;0.60;;;;;;;13.53;76.53;99054.75;105292;1271;74480;-25
2022/07/17 03:14:45;;;;;;;1.00;0.60;;;;;;;13.49;76.29;99056.33;105279;1271;60957;-25
2022/07/17 03:17:13;;;;;;;1.00;0.70;;;;;;;13.26;76.98;99059.40;105292;1270;61359;-24
2022/07/17 03:19:41;;;;;;;0.90;0.60;;;;;;;12.94;78.41;99061.98;105137;1272;75094;-25
2022/07/17 03:22:08;;;;;;;1.40;1.10;;;;;;;12.70;79.77;99072.48;105345;1271;76122;-25
2022/07/17 03:24:36;;;;;;;1.60;1.20;;;;;;;12.57;80.45;99074.91;105115;1274;74339;-25
2022/07/17 03:27:03;;;;;;;1.40;0.50;;;;;;;12.94;79.82;99082.72;105297;1271;61929;-24
2022/07/17 03:29:30;;;;;;;1.80;0.70;;;;;;;13.28;78.11;99085.56;105346;1271;61027;-25
2022/07/17 03:31:58;;;;;;;6.40;0.80;;;;;;;13.17;78.03;99085.65;105359;1271;75544;-25
2022/07/17 03:34:26;;;;;;;3.30;0.80;;;;;;;12.99;78.86;99086.92;105134;1271;74540;-25
2022/07/17 03:36:54;;;;;;;1.10;0.70;;;;;;;12.81;79.34;99088.05;105002;1271;72333;-25
2022/07/17 03:39:21;;;;;;;0.80;0.70;;;;;;;12.60;80.28;99081.23;105158;1271;62216;-25
2022/07/17 03:41:51;;;;;;;0.90;0.70;;;;;;;12.95;79.55;99084.17;105245;1271;61094;-25
2022/07/17 03:44:19;;;;;;;1.30;0.70;;;;;;;13.14;78.47;99086.81;105314;1271;75713;-25
2022/07/17 03:46:47;;;;;;;1.20;1.10;;;;;;;13.06;78.72;99089.30;105148;1274;75055;-25
2022/07/17 03:49:15;;;;;;;1.20;0.90;;;;;;;12.82;79.76;99089.71;105109;1271;74406;-25
2022/07/17 03:51:43;;;;;;;1.60;0.80;;;;;;;12.64;80.76;99088.67;105001;1271;63404;-25
2022/07/17 03:54:11;;;;;;;2.80;0.80;;;;;;;12.94;79.20;99081.83;105119;1271;61820;-25
2022/07/17 03:56:39;;;;;;;1.10;0.70;;;;;;;13.30;77.88;99084.91;105146;1271;75403;-25
2022/07/17 03:59:07;;;;;;;1.00;0.70;;;;;;;13.28;77.76;99085.23;105051;1271;75891;-25
2022/07/17 04:01:35;;;;;;;1.70;0.90;;;;;;;12.97;78.91;99087.86;105151;1271;74637;-26
2022/07/17 04:04:03;;;;;;;1.90;1.00;;;;;;;12.82;79.34;99091.31;105163;1271;61205;-24
2022/07/17 04:06:31;;;;;;;1.30;0.90;;;;;;;12.65;80.17;99094.20;104841;1274;61044;-25
2022/07/17 04:08:58;;;;;;;2.90;1.00;;;;;;;13.01;78.65;99094.45;105054;1271;75545;-26
2022/07/17 04:11:26;;;;;;;2.60;0.90;;;;;;;13.12;77.30;99099.23;104939;1274;74969;-25
2022/07/17 04:13:55;;;;;;;2.30;0.90;;;;;;;12.95;77.47;99099.86;104884;1274;73356;-25
2022/07/17 04:16:23;;;;;;;2.30;1.30;;;;;;;12.75;78.18;99101.63;105106;1271;61147;-26
2022/07/17 04:18:50;;;;;;;2.10;1.10;;;;;;;12.51;79.12;99105.20;104969;1274;61810;-25
2022/07/17 04:21:19;;;;;;;0.80;0.70;;;;;;;12.36;79.54;99107.01;105067;1271;75323;-26
2022/07/17 04:23:46;;;;;;;2.70;1.00;;;;;;;12.73;78.68;99105.48;105134;1271;76113;-25
2022/07/17 04:26:14;;;;;;;1.20;0.90;;;;;;;13.03;77.12;99103.66;105155;1271;74411;-25
2022/07/17 04:28:54;;;;;;;4.60;1.00;;;;;;;13.04;76.82;99096.79;105114;1271;61045;-25
2022/07/17 04:31:22;;;;;;;3.50;1.20;;;;;;;12.88;77.09;99091.80;105167;1271;62005;-25
2022/07/17 04:33:53;;;;;;;1.20;0.90;;;;;;;12.74;77.61;99089.07;105151;1271;75842;-26
2022/07/17 04:36:21;;;;;;;3.00;0.90;;;;;;;12.77;78.47;99091.76;105111;1272;76118;-25
2022/07/17 04:38:48;;;;;;;2.00;1.00;;;;;;;13.51;76.29;99091.34;105007;1271;73298;-24
2022/07/17 04:41:16;;;;;;;2.30;1.10;;;;;;;14.13;73.24;99087.48;104937;1271;61010;-25
2022/07/17 04:43:43;;;;;;;3.00;1.30;;;;;;;14.40;72.50;99090.50;105104;1271;61781;-25
2022/07/17 04:46:11;;;;;;;1.40;1.10;;;;;;;14.47;71.96;99086.14;105063;1271;75790;-25
2022/07/17 04:48:39;;;;;;;2.40;0.80;;;;;;;14.50;72.08;99082.71;105077;1272;75642;-25
2022/07/17 04:51:08;;;;;;;1.90;1.30;;;;;;;14.35;72.10;99083.47;104938;1274;74292;-25
2022/07/17 04:53:37;;;;;;;1.50;0.70;;;;;;;14.38;71.56;99085.27;104911;1271;63993;-25
2022/07/17 04:56:08;;;;;;;4.30;1.00;;;;;;;14.55;69.67;99080.85;104781;1271;61102;-25
2022/07/17 04:58:35;;;;;;;1.40;1.00;;;;;;;14.96;68.95;99081.43;104695;1272;75697;-25
2022/07/17 05:01:02;;;;;;;1.70;0.80;;;;;;;14.97;67.55;99077.27;104936;1271;75868;-25
2022/07/17 05:03:30;;;;;;;3.50;0.90;;;;;;;14.89;67.89;99078.61;104951;1271;73354;-24
2022/07/17 05:05:57;;;;;;;1.90;0.80;;;;;;;14.82;66.67;99073.89;105146;1271;62122;-25
2022/07/17 05:08:26;;;;;;;2.20;0.70;;;;;;;14.73;66.72;99080.67;105048;1271;61128;-24
2022/07/17 05:10:53;;;;;;;0.80;0.80;;;;;;;14.68;68.04;99074.38;104959;1271;75345;-25
2022/07/17 05:13:21;;;;;;;2.70;0.80;;;;;;;14.68;68.40;99081.68;104969;1271;76088;-25
2022/07/17 05:15:49;;;;;;;1.70;0.80;;;;;;;14.64;68.52;99078.92;105092;1274;73420;-24
2022/07/17 05:18:17;;;;;;;1.40;0.80;;;;;;;14.75;66.37;99077.30;105132;1274;62394;-24
2022/07/17 05:20:45;;;;;;;2.50;0.70;;;;;;;15.26;65.17;99076.12;105005;1274;61018;-24
2022/07/17 05:23:12;;;;;;;1.40;0.80;;;;;;;15.61;63.50;99077.49;105053;1271;75595;-24
2022/07/17 05:25:40;;;;;;;2.00;0.60;;;;;;;15.80;63.52;99076.84;104986;1271;75872;-24
2022/07/17 05:28:07;;;;;;;1.10;0.70;;;;;;;15.75;62.64;99075.64;104902;1271;74530;-25
2022/07/17 05:30:35;;;;;;;2.20;0.70;;;;;;;15.40;62.66;99078.30;104937;1271;62828;-24
2022/07/17 05:33:03;;;;;;;1.30;0.70;;;;;;;15.43;63.31;99078.64;104938;1270;61195;-24
2022/07/17 05:35:31;;;;;;;1.60;0.70;;;;;;;15.30;62.22;99076.31;105096;1271;75478;-24
2022/07/17 05:37:58;;;;;;;1.70;0.80;;;;;;;14.81;62.72;99072.54;105179;1271;76074;-24
2022/07/17 05:40:26;;;;;;;0.90;0.70;;;;;;;14.97;63.60;99079.54;105207;1271;73598;-25
2022/07/17 05:42:54;;;;;;;0.50;0.50;;;;;;;15.19;63.46;99079.13;105197;1271;61274;-24
2022/07/17 05:45:21;;;;;;;0.70;0.50;;;;;;;15.28;63.45;99077.38;105184;1271;61123;-24
2022/07/17 05:47:50;;;;;;;1.00;0.40;;;;;;;15.01;61.58;99080.79;105226;1270;75368;-24
2022/07/17 05:50:17;;;;;;;0.90;0.50;;;;;;;15.01;60.44;99080.35;105165;1271;75833;-24
2022/07/17 05:52:45;;;;;;;3.20;0.60;;;;;;;14.83;60.51;99078.98;104741;1272;73400;-24
2022/07/17 05:55:12;;;;;;;0.60;0.50;;;;;;;14.97;60.69;99084.79;105116;1271;62248;-24
2022/07/17 05:57:40;;;;;;;1.70;0.80;;;;;;;14.92;60.05;99081.27;105143;1271;61157;-24
2022/07/17 06:00:08;;;;;;;1.70;0.40;;;;;;;15.08;58.31;99078.82;105125;1270;74539;-24
2022/07/17 06:02:39;;;;;;;1.40;0.60;;;;;;;15.01;58.62;99080.17;104868;1274;75958;-24
2022/07/17 06:05:08;;;;;;;2.20;0.50;;;;;;;14.93;60.18;99076.27;105088;1271;74348;-24
2022/07/17 06:07:37;;;;;;;1.20;1.00;;;;;;;14.91;61.21;99075.77;104663;1271;391304;-25
2022/07/17 06:10:06;;;;;;;1.70;0.60;;;;;;;15.22;59.99;99072.55;104622;1274;61090;-24
2022/07/17 06:12:34;;;;;;;0.80;0.50;;;;;;;15.30;60.95;99066.31;104946;1271;75718;-24
2022/07/17 06:15:02;;;;;;;0.90;0.70;;;;;;;15.17;61.49;99074.27;105115;1272;74896;-24
2022/07/17 06:17:30;;;;;;;0.50;0.50;;;;;;;15.29;61.24;99074.11;104867;1274;74658;-24
2022/07/17 06:19:57;;;;;;;1.20;0.70;;;;;;;15.12;62.17;99078.95;105152;1271;61142;-24
2022/07/17 06:22:24;;;;;;;1.00;0.60;;;;;;;15.15;60.64;99078.98;105203;1271;61190;-24
2022/07/17 06:24:52;;;;;;;1.60;0.80;;;;;;;15.10;62.90;99078.95;105181;1271;75499;-24
2022/07/17 06:27:20;;;;;;;1.20;0.70;;;;;;;15.02;63.58;99088.52;104981;1271;76161;-24
2022/07/17 06:29:47;;;;;;;1.50;0.60;;;;;;;15.17;63.32;99081.80;104953;1271;74294;-24
2022/07/17 06:32:23;;;;;;;2.10;0.80;;;;;;;14.99;62.99;99078.70;105074;1271;61238;-24
2022/07/17 06:34:51;;;;;;;2.10;0.90;;;;;;;14.80;64.16;99083.70;104946;1271;61121;-24
2022/07/17 06:37:20;;;;;;;2.30;0.80;;;;;;;14.72;64.83;99077.99;104816;1271;73391;-24
2022/07/17 06:39:48;;;;;;;0.70;0.60;;;;;;;14.83;64.63;99075.17;105004;1271;75818;-24
2022/07/17 06:42:17;;;;;;;1.10;0.70;;;;;;;15.13;63.05;99074.30;105041;1269;74186;-24
2022/07/17 06:44:45;;;;;;;0.90;0.60;;;;;;;15.32;62.26;99075.06;104968;1271;62003;-24
2022/07/17 06:47:12;;;;;;;0.70;0.60;;;;;;;15.17;62.18;99075.48;104814;1272;61072;-25
2022/07/17 06:49:40;;;;;;;0.80;0.70;;;;;;;15.08;62.29;99073.60;104939;1271;75811;-24
2022/07/17 06:52:08;;;;;;;2.10;0.60;;;;;;;14.87;62.78;99077.01;104975;1271;74983;-24
2022/07/17 06:54:37;;;;;;;0.90;0.70;;;;;;;14.69;64.11;99072.16;104729;1271;74470;-24
2022/07/17 06:57:07;;;;;;;1.20;0.80;;;;;;;14.26;65.41;99076.30;104910;1271;61136;-24
2022/07/17 06:59:37;;;;;;;0.70;0.60;;;;;;;14.06;65.22;99081.54;104981;1271;60959;-23
2022/07/17 07:02:05;;;;;;;1.20;0.60;;;;;;;13.94;64.11;99083.39;104860;1272;76505;-24
2022/07/17 07:04:33;;;;;;;2.80;0.80;;;;;;;13.82;63.90;99089.19;104837;1271;75356;-24
2022/07/17 07:07:00;;;;;;;2.10;0.90;;;;;;;13.63;66.17;99099.61;104940;1270;76321;-24
2022/07/17 07:09:28;;;;;;;0.70;0.60;;;;;;;13.16;71.57;99101.48;104989;1271;62568;-24
2022/07/17 07:11:56;;;;;;;1.40;0.80;;;;;;;13.20;73.72;99110.16;105167;1271;61967;-24
2022/07/17 07:14:24;;;;;;;2.10;0.90;;;;;;;13.04;75.55;99120.51;105227;1271;75531;-24
2022/07/17 07:16:52;;;;;;;3.00;1.10;;;;;;;12.81;76.68;99119.23;105166;1271;77839;-24
2022/07/17 07:19:20;;;;;;;2.60;0.90;;;;;;;12.65;78.16;99123.23;105021;1271;74186;-24
2022/07/17 07:21:47;;;;;;;2.30;1.10;;;;;;;12.58;79.81;99124.55;105106;1271;61019;-24
2022/07/17 07:24:17;;;;;;;1.50;0.60;;;;;;;12.73;80.79;99123.96;105123;1270;61041;-24
2022/07/17 07:26:46;;;;;;;4.20;0.90;;;;;;;13.40;78.58;99127.94;105095;1271;75476;-26
2022/07/17 07:29:13;;;;;;;1.30;0.80;;;;;;;13.79;75.41;99130.29;105225;1271;75066;-24
2022/07/17 07:31:44;;;;;;;1.50;0.70;;;;;;;13.65;74.41;99131.39;105113;1271;72581;-24
2022/07/17 07:34:13;;;;;;;1.00;0.90;;;;;;;13.40;74.83;99138.00;105079;1271;61057;-25
2022/07/17 07:36:42;;;;;;;1.60;0.90;;;;;;;13.23;75.79;99140.55;104915;1271;61115;-24
2022/07/17 07:39:10;;;;;;;1.60;0.90;;;;;;;12.87;76.82;99134.90;105145;1271;75444;-24
2022/07/17 07:41:41;;;;;;;0.90;0.60;;;;;;;12.74;78.89;99142.55;105064;1270;76004;-24
2022/07/17 07:44:12;;;;;;;1.20;0.70;;;;;;;13.10;77.47;99140.15;104959;1271;73604;-25
2022/07/17 07:46:49;;;;;;;1.50;0.80;;;;;;;13.35;77.01;99147.39;105004;1271;61150;-24
2022/07/17 07:49:17;;;;;;;1.20;0.70;;;;;;;13.34;77.39;99150.77;104899;1272;62031;-25
2022/07/17 07:51:46;;;;;;;1.30;0.90;;;;;;;12.95;76.34;99148.11;104983;1271;75482;-27
2022/07/17 07:54:32;;;;;;;2.10;0.80;;;;;;;12.87;77.46;99153.89;105178;1271;76972;-25
2022/07/17 07:57:00;;;;;;;0.90;0.50;;;;;;;12.70;77.66;99152.42;105076;1271;73891;-24
2022/07/17 07:59:28;;;;;;;1.10;0.50;;;;;;;13.08;75.42;99151.72;104954;1271;61218;-25
2022/07/17 08:01:56;;;;;;;1.20;0.80;;;;;;;13.33;74.08;99154.33;104879;1272;61118;-24
2022/07/17 08:04:24;;;;;;;0.70;0.70;;;;;;;13.29;74.48;99154.48;105190;1271;75609;-25
2022/07/17 08:06:52;;;;;;;0.80;0.80;;;;;;;13.23;75.37;99151.38;104924;1271;74992;-25
2022/07/17 08:09:19;;;;;;;0.80;0.70;;;;;;;13.12;76.09;99154.00;105047;1271;74344;-24
2022/07/17 08:11:47;;;;;;;1.40;0.50;;;;;;;13.03;74.54;99147.29;104977;1271;62847;-24
2022/07/17 08:14:14;;;;;;;3.30;0.90;;;;;;;13.14;74.44;99153.96;104984;1271;61138;-25
2022/07/17 08:16:44;;;;;;;1.10;0.70;;;;;;;13.68;74.18;99151.67;105138;1271;75547;-24
2022/07/17 08:19:11;;;;;;;1.80;1.00;;;;;;;14.27;73.47;99146.16;104978;1271;75048;-24
2022/07/17 08:21:39;;;;;;;1.10;0.80;;;;;;;14.50;70.25;99139.98;104948;1271;74394;-24
2022/07/17 08:24:09;;;;;;;1.10;0.70;;;;;;;14.51;70.82;99138.70;104929;1271;61122;-24
2022/07/17 08:26:39;;;;;;;1.60;0.70;;;;;;;14.62;69.32;99136.60;104848;1271;61136;-24
2022/07/17 08:29:07;;;;;;;2.90;0.90;;;;;;;14.82;68.73;99129.82;105197;1271;75738;-24
2022/07/17 08:31:35;;;;;;;1.30;0.90;;;;;;;14.73;67.88;99133.94;105152;1271;76887;-24
2022/07/17 08:34:03;;;;;;;1.60;0.80;;;;;;;14.69;68.93;99133.30;104974;1272;74374;-24
2022/07/17 08:36:31;;;;;;;1.40;0.80;;;;;;;14.93;66.16;99134.47;105153;1271;61128;-24
2022/07/17 08:38:59;;;;;;;1.60;0.90;;;;;;;15.15;66.46;99137.61;105205;1271;61004;-24
2022/07/17 08:41:28;;;;;;;2.00;0.70;;;;;;;15.11;64.60;99133.59;105254;1271;75499;-24
2022/07/17 08:43:57;;;;;;;1.20;0.70;;;;;;;14.99;66.51;99135.95;105058;1273;76047;-24
2022/07/17 08:46:25;;;;;;;1.20;0.80;;;;;;;15.34;65.54;99136.45;105093;1271;74366;-24
2022/07/17 08:48:59;;;;;;;1.70;0.90;;;;;;;15.73;64.09;99122.17;105068;1271;61419;-24
2022/07/17 08:51:26;;;;;;;1.60;0.70;;;;;;;16.07;63.26;99123.33;104992;1271;61915;-24
2022/07/17 08:53:54;;;;;;;0.70;0.70;;;;;;;16.15;62.75;99123.77;105171;1271;75583;-24
2022/07/17 08:56:22;;;;;;;1.00;0.50;;;;;;;15.85;61.17;99116.83;105264;1271;77056;-25
2022/07/17 08:58:51;;;;;;;0.50;0.40;;;;;;;16.06;60.01;99104.17;105065;1271;74836;-24
2022/07/17 09:01:19;;;;;;;0.60;0.60;;;;;;;16.28;59.22;99106.40;105290;1271;61149;-24
2022/07/17 09:04:06;;;;;;;2.10;0.60;;;;;;;16.37;58.02;99123.08;105145;1271;61070;-24
2022/07/17 09:06:37;;;;;;;5.00;0.80;;;;;;;16.35;57.98;99123.56;105017;1271;75764;-24
2022/07/17 09:09:12;;;;;;;0.70;0.70;;;;;;;16.51;57.26;99121.23;105087;1271;76879;-25
2022/07/17 09:11:50;;;;;;;1.10;0.60;;;;;;;16.40;57.69;99115.69;105119;1271;73417;-23
2022/07/17 09:14:18;;;;;;;1.50;0.50;;;;;;;16.17;59.43;99127.52;104757;1271;61070;-24
2022/07/17 09:16:56;;;;;;;0.80;0.50;;;;;;;16.18;58.51;99116.44;104872;1271;62023;-23
2022/07/17 09:19:32;;;;;;;3.20;0.70;;;;;;;16.15;57.23;99125.84;104938;1271;75519;-24
2022/07/17 09:22:21;;;;;;;1.30;0.60;;;;;;;16.28;56.82;99125.06;104747;1271;75158;-23
2022/07/17 09:24:55;;;;;;;2.60;0.80;;;;;;;16.50;55.49;99130.95;104797;1271;74452;-23
2022/07/17 09:27:32;;;;;;;0.70;0.50;;;;;;;16.41;54.67;99123.48;104688;1271;61158;-23
2022/07/17 09:30:01;;;;;;;0.50;0.50;;;;;;;16.73;54.28;99120.33;104912;1271;61075;-23
2022/07/17 09:32:31;;;;;;;0.90;0.60;;;;;;;17.18;53.00;99112.10;105046;1271;75515;-23
2022/07/17 09:34:59;;;;;;;0.60;0.50;;;;;;;17.30;54.32;99122.02;104799;1271;75993;-23
2022/07/17 09:37:28;;;;;;;1.20;0.50;;;;;;;17.49;52.58;99123.78;105002;1274;74773;-23
2022/07/17 09:39:56;;;;;;;2.80;0.40;;;;;;;17.49;49.03;99117.91;105115;1271;61084;-23
2022/07/17 09:42:30;;;;;;;3.10;0.50;;;;;;;17.10;51.18;99122.58;105116;1271;62210;-23
2022/07/17 09:45:02;;;;;;;1.60;0.50;;;;;;;16.18;51.72;99124.14;105069;1274;75611;-24
2022/07/17 09:47:31;;;;;;;2.00;0.60;;;;;;;16.66;48.78;99111.63;104880;1274;76847;-24
2022/07/17 09:49:59;;;;;;;0.50;0.50;;;;;;;16.69;48.74;99107.09;104635;1274;74404;-25
2022/07/17 09:52:31;;;;;;;1.50;0.50;;;;;;;16.72;48.29;99111.46;105023;1271;62091;-25
2022/07/17 09:55:00;;;;;;;0.80;0.50;;;;;;;16.93;49.25;99125.23;104923;1271;61043;-25
2022/07/17 09:57:48;;;;;;;0.60;0.40;;;;;;;17.03;48.51;99123.16;105120;1271;75521;-25
2022/07/17 10:00:16;;;;;;;0.60;0.50;;;;;;;17.40;49.40;99124.97;104910;1271;76035;-26
2022/07/17 10:02:50;;;;;;;3.30;0.40;;;;;;;17.65;48.32;99125.75;104890;1271;74483;-25
2022/07/17 10:05:19;;;;;;;3.20;0.50;;;;;;;17.64;48.68;99129.16;104955;1271;61013;-25
2022/07/17 10:07:49;;;;;;;0.90;0.50;;;;;;;17.20;49.20;99123.37;104943;1271;61121;-25
2022/07/17 10:10:17;;;;;;;2.30;0.60;;;;;;;16.96;50.71;99121.97;105313;1271;76686;-26
2022/07/17 10:12:47;;;;;;;1.50;0.50;;;;;;;17.45;49.77;99123.77;104714;1271;76115;-25
2022/07/17 10:15:16;;;;;;;2.90;0.50;;;;;;;17.73;48.55;99118.02;104793;1271;74673;-25
2022/07/17 10:17:44;;;;;;;4.30;0.50;;;;;;;17.46;48.01;99114.10;105031;1271;61149;-25
2022/07/17 10:20:13;;;;;;;1.00;0.50;;;;;;;17.66;46.04;99112.33;104986;1271;61997;-25
2022/07/17 10:22:42;;;;;;;2.00;0.50;;;;;;;18.04;46.81;99111.80;105027;1271;75524;-25
2022/07/17 10:25:15;;;;;;;0.70;0.50;;;;;;;18.18;46.48;99115.73;105022;1271;76064;-24
2022/07/17 10:27:53;;;;;;;1.90;0.40;;;;;;;18.09;45.55;99113.40;105046;1271;74518;-25
2022/07/17 10:30:24;;;;;;;1.30;0.50;;;;;;;17.82;45.42;99111.98;104967;1271;61975;-26
2022/07/17 10:32:59;;;;;;;1.00;0.50;;;;;;;17.90;45.89;99109.84;104881;1271;61875;-25
2022/07/17 10:35:27;;;;;;;0.90;0.40;;;;;;;17.77;45.23;99096.67;105162;1271;74756;-25
2022/07/17 10:38:10;;;;;;;1.30;0.50;;;;;;;17.63;46.36;99097.52;105080;1271;75856;-25
2022/07/17 10:40:38;;;;;;;1.10;0.50;;;;;;;18.00;45.73;99095.61;104624;1274;73434;-25
2022/07/17 10:43:06;;;;;;;1.90;0.40;;;;;;;17.85;44.96;99092.79;104910;1271;62098;-25
2022/07/17 10:45:42;;;;;;;0.50;0.50;;;;;;;18.50;45.06;99101.45;104937;1271;61082;-25
2022/07/17 10:48:11;;;;;;;2.60;0.50;;;;;;;19.18;44.65;99094.56;104857;1271;75541;-25
2022/07/17 10:50:45;;;;;;;0.70;0.40;;;;;;;19.24;43.92;99087.35;104784;1271;75155;-25
2022/07/17 10:53:31;;;;;;;2.40;0.50;;;;;;;18.69;43.07;99094.33;104851;1271;74533;-25
2022/07/17 10:56:01;;;;;;;0.70;0.40;;;;;;;18.61;46.01;99102.14;105086;1271;62027;-25
2022/07/17 10:58:33;;;;;;;1.50;0.50;;;;;;;18.82;44.85;99108.18;104821;1271;61117;-25
2022/07/17 11:01:17;;;;;;;1.50;0.40;;;;;;;18.88;44.50;99099.73;104742;1274;75305;-25
2022/07/17 11:03:51;;;;;;;2.30;0.40;;;;;;;18.73;43.47;99094.80;104656;1274;73824;-25
2022/07/17 11:06:20;;;;;;;0.60;0.50;;;;;;;18.98;42.96;99097.25;104723;1274;72878;-26
2022/07/17 11:08:58;;;;;;;1.00;0.50;;;;;;;19.06;42.59;99092.35;104819;1271;61984;-25
2022/07/17 11:11:38;;;;;;;0.70;0.40;;;;;;;19.32;42.53;99096.48;104804;1271;62201;-25
2022/07/17 11:14:09;;;;;;;1.40;0.60;;;;;;;18.99;43.51;99096.35;104980;1271;74819;-25
2022/07/17 11:16:38;;;;;;;2.20;0.40;;;;;;;18.65;44.44;99104.45;105117;1271;76002;-25
2022/07/17 11:19:08;;;;;;;0.70;0.40;;;;;;;18.68;44.95;99099.35;105236;1271;74398;-25
2022/07/17 11:21:46;;;;;;;0.50;0.30;;;;;;;18.96;43.11;99094.70;104977;1271;61141;-25
2022/07/17 11:24:13;;;;;;;0.30;0.30;;;;;;;19.26;43.66;99092.61;104719;1271;62160;-25
2022/07/17 11:26:42;;;;;;;0.80;0.50;;;;;;;19.02;43.57;99093.52;104932;1271;76039;-25
2022/07/17 11:29:09;;;;;;;0.70;0.40;;;;;;;19.09;43.70;99093.86;104891;1271;75097;-25
2022/07/17 11:31:36;;;;;;;0.50;0.40;;;;;;;19.20;42.25;99085.55;104912;1271;74149;-25
2022/07/17 11:34:08;;;;;;;0.90;0.50;;;;;;;19.41;41.89;99084.77;104996;1271;61028;-25